sensor_id;sensor_type;location;lat;lon;timestamp;temperature;humidity
49441;DHT22;35317;51.978;6.296;2023-06-24T00:03:08;17.90;98.10
49441;DHT22;35317;51.978;6.296;2023-06-24T00:08:09;17.90;98.30
49441;DHT22;35317;51.978;6.296;2023-06-24T00:13:10;17.90;98.50
49441;DHT22;35317;51.978;6.296;2023-06-24T00:18:11;17.90;99.00
49441;DHT22;35317;51.978;6.296;2023-06-24T00:23:17;17.90;98.90
49441;DHT22;35317;51.978;6.296;2023-06-24T00:28:22;17.90;99.10
49441;DHT22;35317;51.978;6.296;2023-06-24T00:33:23;17.90;99.10
49441;DHT22;35317;51.978;6.296;2023-06-24T00:38:24;17.90;99.20
49441;DHT22;35317;51.978;6.296;2023-06-24T00:43:25;17.90;99.30
49441;DHT22;35317;51.978;6.296;2023-06-24T00:48:26;18.00;99.40
49441;DHT22;35317;51.978;6.296;2023-06-24T00:53:27;18.00;99.60
49441;DHT22;35317;51.978;6.296;2023-06-24T00:58:31;17.90;99.60
49441;DHT22;35317;51.978;6.296;2023-06-24T01:03:32;18.00;99.70
49441;DHT22;35317;51.978;6.296;2023-06-24T01:08:32;17.90;99.80
49441;DHT22;35317;51.978;6.296;2023-06-24T01:13:34;17.90;99.70
49441;DHT22;35317;51.978;6.296;2023-06-24T01:18:40;17.80;99.80
49441;DHT22;35317;51.978;6.296;2023-06-24T01:29:56;17.70;99.90
49441;DHT22;35317;51.978;6.296;2023-06-24T01:35:28;17.60;99.90
49441;DHT22;35317;51.978;6.296;2023-06-24T01:40:43;17.50;99.90
49441;DHT22;35317;51.978;6.296;2023-06-24T01:45:52;17.40;99.90
49441;DHT22;35317;51.978;6.296;2023-06-24T01:50:59;17.40;99.90
49441;DHT22;35317;51.978;6.296;2023-06-24T01:56:06;17.40;99.90
49441;DHT22;35317;51.978;6.296;2023-06-24T02:01:08;17.30;99.90
49441;DHT22;35317;51.978;6.296;2023-06-24T02:06:09;17.20;99.90
49441;DHT22;35317;51.978;6.296;2023-06-24T02:11:12;17.20;99.90
49441;DHT22;35317;51.978;6.296;2023-06-24T02:16:13;17.10;99.90
49441;DHT22;35317;51.978;6.296;2023-06-24T02:21:17;17.10;99.90
49441;DHT22;35317;51.978;6.296;2023-06-24T02:26:21;17.00;99.90
49441;DHT22;35317;51.978;6.296;2023-06-24T02:31:23;17.00;99.90
49441;DHT22;35317;51.978;6.296;2023-06-24T02:36:23;17.00;99.90
49441;DHT22;35317;51.978;6.296;2023-06-24T02:41:24;17.00;99.90
49441;DHT22;35317;51.978;6.296;2023-06-24T02:46:27;17.00;99.90
49441;DHT22;35317;51.978;6.296;2023-06-24T02:51:30;17.10;99.90
49441;DHT22;35317;51.978;6.296;2023-06-24T02:56:31;17.10;99.90
49441;DHT22;35317;51.978;6.296;2023-06-24T03:01:34;17.20;99.90
49441;DHT22;35317;51.978;6.296;2023-06-24T03:06:40;17.10;99.90
49441;DHT22;35317;51.978;6.296;2023-06-24T03:11:42;17.10;99.90
49441;DHT22;35317;51.978;6.296;2023-06-24T03:16:45;17.10;99.90
49441;DHT22;35317;51.978;6.296;2023-06-24T03:21:46;17.10;99.90
49441;DHT22;35317;51.978;6.296;2023-06-24T03:26:47;17.00;99.90
49441;DHT22;35317;51.978;6.296;2023-06-24T03:31:48;17.10;99.90
49441;DHT22;35317;51.978;6.296;2023-06-24T03:36:48;17.00;99.90
49441;DHT22;35317;51.978;6.296;2023-06-24T03:41:49;17.00;99.90
49441;DHT22;35317;51.978;6.296;2023-06-24T03:46:50;17.00;99.90
49441;DHT22;35317;51.978;6.296;2023-06-24T03:51:51;17.00;99.90
49441;DHT22;35317;51.978;6.296;2023-06-24T03:56:52;17.00;99.90
49441;DHT22;35317;51.978;6.296;2023-06-24T04:01:52;17.00;99.90
49441;DHT22;35317;51.978;6.296;2023-06-24T04:06:54;17.00;99.90
49441;DHT22;35317;51.978;6.296;2023-06-24T04:11:55;17.00;99.90
49441;DHT22;35317;51.978;6.296;2023-06-24T04:16:56;17.00;99.90
49441;DHT22;35317;51.978;6.296;2023-06-24T04:21:56;17.10;99.90
49441;DHT22;35317;51.978;6.296;2023-06-24T04:26:58;17.10;99.90
49441;DHT22;35317;51.978;6.296;2023-06-24T04:31:59;17.10;99.90
49441;DHT22;35317;51.978;6.296;2023-06-24T04:36:59;17.20;99.90
49441;DHT22;35317;51.978;6.296;2023-06-24T04:42:00;17.30;99.90
49441;DHT22;35317;51.978;6.296;2023-06-24T04:47:01;17.40;99.90
49441;DHT22;35317;51.978;6.296;2023-06-24T04:52:02;17.50;99.90
49441;DHT22;35317;51.978;6.296;2023-06-24T04:57:09;17.60;99.90
49441;DHT22;35317;51.978;6.296;2023-06-24T05:02:10;17.80;99.90
49441;DHT22;35317;51.978;6.296;2023-06-24T05:07:11;18.00;99.90
49441;DHT22;35317;51.978;6.296;2023-06-24T05:12:12;18.20;99.90
49441;DHT22;35317;51.978;6.296;2023-06-24T05:17:13;18.50;99.90
49441;DHT22;35317;51.978;6.296;2023-06-24T05:22:14;18.80;99.90
49441;DHT22;35317;51.978;6.296;2023-06-24T05:27:15;19.10;99.90
49441;DHT22;35317;51.978;6.296;2023-06-24T05:32:17;19.40;99.90
49441;DHT22;35317;51.978;6.296;2023-06-24T05:37:20;19.70;99.90
49441;DHT22;35317;51.978;6.296;2023-06-24T05:42:21;19.90;99.90
49441;DHT22;35317;51.978;6.296;2023-06-24T05:47:23;20.00;99.90
49441;DHT22;35317;51.978;6.296;2023-06-24T05:52:24;20.10;99.90
49441;DHT22;35317;51.978;6.296;2023-06-24T05:57:25;20.30;99.90
49441;DHT22;35317;51.978;6.296;2023-06-24T06:02:26;20.40;99.90
49441;DHT22;35317;51.978;6.296;2023-06-24T06:07:27;20.60;99.90
49441;DHT22;35317;51.978;6.296;2023-06-24T06:12:27;20.60;99.80
49441;DHT22;35317;51.978;6.296;2023-06-24T06:17:28;20.80;99.20
49441;DHT22;35317;51.978;6.296;2023-06-24T06:22:29;20.90;98.50
49441;DHT22;35317;51.978;6.296;2023-06-24T06:27:30;21.00;97.90
49441;DHT22;35317;51.978;6.296;2023-06-24T06:32:30;21.10;97.20
49441;DHT22;35317;51.978;6.296;2023-06-24T06:37:31;21.10;96.70
49441;DHT22;35317;51.978;6.296;2023-06-24T06:42:32;21.30;96.20
49441;DHT22;35317;51.978;6.296;2023-06-24T06:47:33;21.40;94.90
49441;DHT22;35317;51.978;6.296;2023-06-24T06:52:34;21.40;93.90
49441;DHT22;35317;51.978;6.296;2023-06-24T06:57:34;21.50;93.10
49441;DHT22;35317;51.978;6.296;2023-06-24T07:02:35;21.60;92.90
49441;DHT22;35317;51.978;6.296;2023-06-24T07:07:40;21.70;92.40
49441;DHT22;35317;51.978;6.296;2023-06-24T07:12:46;21.70;92.00
49441;DHT22;35317;51.978;6.296;2023-06-24T07:17:47;21.90;91.60
49441;DHT22;35317;51.978;6.296;2023-06-24T07:22:48;22.00;91.10
49441;DHT22;35317;51.978;6.296;2023-06-24T07:27:49;22.10;90.50
49441;DHT22;35317;51.978;6.296;2023-06-24T07:32:53;22.20;90.50
49441;DHT22;35317;51.978;6.296;2023-06-24T07:37:53;22.30;90.00
49441;DHT22;35317;51.978;6.296;2023-06-24T07:42:54;22.50;89.20
49441;DHT22;35317;51.978;6.296;2023-06-24T07:47:55;22.50;87.80
49441;DHT22;35317;51.978;6.296;2023-06-24T07:52:56;22.70;87.40
49441;DHT22;35317;51.978;6.296;2023-06-24T07:57:57;22.80;86.50
49441;DHT22;35317;51.978;6.296;2023-06-24T08:02:59;23.00;85.00
49441;DHT22;35317;51.978;6.296;2023-06-24T08:08:00;23.20;84.10
49441;DHT22;35317;51.978;6.296;2023-06-24T08:13:01;23.30;82.70
49441;DHT22;35317;51.978;6.296;2023-06-24T08:18:08;23.40;81.20
49441;DHT22;35317;51.978;6.296;2023-06-24T08:23:10;23.60;80.80
49441;DHT22;35317;51.978;6.296;2023-06-24T08:28:11;23.80;80.80
49441;DHT22;35317;51.978;6.296;2023-06-24T08:33:43;24.10;79.60
49441;DHT22;35317;51.978;6.296;2023-06-24T08:38:47;24.30;78.00
49441;DHT22;35317;51.978;6.296;2023-06-24T08:43:47;24.50;77.50
49441;DHT22;35317;51.978;6.296;2023-06-24T08:48:49;24.80;76.90
49441;DHT22;35317;51.978;6.296;2023-06-24T08:53:54;25.10;76.10
49441;DHT22;35317;51.978;6.296;2023-06-24T08:58:55;25.50;75.00
49441;DHT22;35317;51.978;6.296;2023-06-24T09:03:56;25.90;73.30
49441;DHT22;35317;51.978;6.296;2023-06-24T09:08:57;26.10;71.60
49441;DHT22;35317;51.978;6.296;2023-06-24T09:13:59;26.20;70.10
49441;DHT22;35317;51.978;6.296;2023-06-24T09:19:00;26.20;68.60
49441;DHT22;35317;51.978;6.296;2023-06-24T09:24:01;26.20;68.00
49441;DHT22;35317;51.978;6.296;2023-06-24T09:29:03;26.10;67.90
49441;DHT22;35317;51.978;6.296;2023-06-24T09:34:04;26.20;66.70
49441;DHT22;35317;51.978;6.296;2023-06-24T09:39:06;26.20;65.50
49441;DHT22;35317;51.978;6.296;2023-06-24T09:44:11;26.30;64.70
49441;DHT22;35317;51.978;6.296;2023-06-24T09:49:12;26.30;63.40
49441;DHT22;35317;51.978;6.296;2023-06-24T09:54:15;26.50;61.70
49441;DHT22;35317;51.978;6.296;2023-06-24T09:59:19;26.60;61.60
49441;DHT22;35317;51.978;6.296;2023-06-24T10:04:21;26.90;61.40
49441;DHT22;35317;51.978;6.296;2023-06-24T10:09:25;27.20;60.10
49441;DHT22;35317;51.978;6.296;2023-06-24T10:14:25;27.50;58.00
49441;DHT22;35317;51.978;6.296;2023-06-24T10:19:30;27.70;56.70
49441;DHT22;35317;51.978;6.296;2023-06-24T10:24:40;27.90;56.10
49441;DHT22;35317;51.978;6.296;2023-06-24T10:29:46;28.00;55.70
49441;DHT22;35317;51.978;6.296;2023-06-24T10:34:53;28.10;54.80
49441;DHT22;35317;51.978;6.296;2023-06-24T10:39:59;28.10;54.30
49441;DHT22;35317;51.978;6.296;2023-06-24T10:50:18;28.20;54.70
49441;DHT22;35317;51.978;6.296;2023-06-24T10:55:24;28.30;54.80
49441;DHT22;35317;51.978;6.296;2023-06-24T11:00:28;28.30;54.60
49441;DHT22;35317;51.978;6.296;2023-06-24T11:05:49;28.40;54.30
49441;DHT22;35317;51.978;6.296;2023-06-24T11:10:53;28.60;53.70
49441;DHT22;35317;51.978;6.296;2023-06-24T11:15:59;28.70;53.70
49441;DHT22;35317;51.978;6.296;2023-06-24T11:21:00;28.90;53.00
49441;DHT22;35317;51.978;6.296;2023-06-24T11:26:03;28.80;52.80
49441;DHT22;35317;51.978;6.296;2023-06-24T11:31:07;28.90;53.10
49441;DHT22;35317;51.978;6.296;2023-06-24T11:36:10;29.10;53.50
49441;DHT22;35317;51.978;6.296;2023-06-24T11:41:11;29.40;53.00
49441;DHT22;35317;51.978;6.296;2023-06-24T11:46:25;29.60;52.30
49441;DHT22;35317;51.978;6.296;2023-06-24T11:51:35;29.90;52.70
49441;DHT22;35317;51.978;6.296;2023-06-24T11:56:41;30.20;50.80
49441;DHT22;35317;51.978;6.296;2023-06-24T12:01:42;30.30;51.10
49441;DHT22;35317;51.978;6.296;2023-06-24T12:06:43;30.50;50.90
49441;DHT22;35317;51.978;6.296;2023-06-24T12:11:44;30.60;50.60
49441;DHT22;35317;51.978;6.296;2023-06-24T12:16:45;30.90;50.50
49441;DHT22;35317;51.978;6.296;2023-06-24T12:21:46;31.10;49.60
49441;DHT22;35317;51.978;6.296;2023-06-24T12:26:47;31.20;49.10
49441;DHT22;35317;51.978;6.296;2023-06-24T12:31:47;31.30;48.80
49441;DHT22;35317;51.978;6.296;2023-06-24T12:36:48;31.30;48.30
49441;DHT22;35317;51.978;6.296;2023-06-24T12:41:49;31.30;48.30
49441;DHT22;35317;51.978;6.296;2023-06-24T12:46:50;31.40;47.80
49441;DHT22;35317;51.978;6.296;2023-06-24T12:51:50;31.50;47.10
49441;DHT22;35317;51.978;6.296;2023-06-24T12:56:51;31.60;46.60
49441;DHT22;35317;51.978;6.296;2023-06-24T13:01:52;31.60;46.30
49441;DHT22;35317;51.978;6.296;2023-06-24T13:06:53;31.60;45.20
49441;DHT22;35317;51.978;6.296;2023-06-24T13:11:54;31.80;45.20
49441;DHT22;35317;51.978;6.296;2023-06-24T13:16:55;32.00;45.20
49441;DHT22;35317;51.978;6.296;2023-06-24T13:21:56;32.20;44.80
49441;DHT22;35317;51.978;6.296;2023-06-24T13:26:57;32.40;44.50
49441;DHT22;35317;51.978;6.296;2023-06-24T13:31:58;32.40;44.60
49441;DHT22;35317;51.978;6.296;2023-06-24T13:36:58;32.50;44.60
49441;DHT22;35317;51.978;6.296;2023-06-24T13:41:59;32.50;43.80
49441;DHT22;35317;51.978;6.296;2023-06-24T13:47:01;32.50;44.30
49441;DHT22;35317;51.978;6.296;2023-06-24T13:52:02;32.60;44.00
49441;DHT22;35317;51.978;6.296;2023-06-24T13:57:03;32.60;44.20
49441;DHT22;35317;51.978;6.296;2023-06-24T14:02:04;32.70;45.10
49441;DHT22;35317;51.978;6.296;2023-06-24T14:07:06;32.90;44.80
49441;DHT22;35317;51.978;6.296;2023-06-24T14:12:08;33.00;45.20
49441;DHT22;35317;51.978;6.296;2023-06-24T14:17:09;33.20;44.30
49441;DHT22;35317;51.978;6.296;2023-06-24T14:22:12;33.20;44.00
49441;DHT22;35317;51.978;6.296;2023-06-24T14:27:12;33.40;43.90
49441;DHT22;35317;51.978;6.296;2023-06-24T14:32:13;33.50;43.80
49441;DHT22;35317;51.978;6.296;2023-06-24T14:37:15;33.80;44.60
49441;DHT22;35317;51.978;6.296;2023-06-24T14:42:15;33.90;44.00
49441;DHT22;35317;51.978;6.296;2023-06-24T14:47:16;34.00;44.00
49441;DHT22;35317;51.978;6.296;2023-06-24T14:52:17;34.00;43.40
49441;DHT22;35317;51.978;6.296;2023-06-24T14:57:18;34.10;43.20
49441;DHT22;35317;51.978;6.296;2023-06-24T15:02:19;34.10;43.30
49441;DHT22;35317;51.978;6.296;2023-06-24T15:07:19;34.00;43.20
49441;DHT22;35317;51.978;6.296;2023-06-24T15:12:20;33.90;43.40
49441;DHT22;35317;51.978;6.296;2023-06-24T15:17:21;33.80;43.70
49441;DHT22;35317;51.978;6.296;2023-06-24T15:22:22;33.60;43.30
49441;DHT22;35317;51.978;6.296;2023-06-24T15:27:23;33.30;43.90
49441;DHT22;35317;51.978;6.296;2023-06-24T15:32:24;33.20;44.00
49441;DHT22;35317;51.978;6.296;2023-06-24T15:37:25;33.30;44.60
49441;DHT22;35317;51.978;6.296;2023-06-24T15:42:26;33.60;44.10
49441;DHT22;35317;51.978;6.296;2023-06-24T15:47:27;34.00;44.30
49441;DHT22;35317;51.978;6.296;2023-06-24T15:52:28;34.20;43.90
49441;DHT22;35317;51.978;6.296;2023-06-24T15:57:28;34.20;43.60
49441;DHT22;35317;51.978;6.296;2023-06-24T16:02:30;34.30;43.70
49441;DHT22;35317;51.978;6.296;2023-06-24T16:07:32;34.20;43.60
49441;DHT22;35317;51.978;6.296;2023-06-24T16:12:33;34.00;43.50
49441;DHT22;35317;51.978;6.296;2023-06-24T16:17:34;34.10;44.30
49441;DHT22;35317;51.978;6.296;2023-06-24T16:22:35;34.10;44.10
49441;DHT22;35317;51.978;6.296;2023-06-24T16:27:36;34.00;44.30
49441;DHT22;35317;51.978;6.296;2023-06-24T16:32:36;34.00;44.40
49441;DHT22;35317;51.978;6.296;2023-06-24T16:37:37;33.80;44.60
49441;DHT22;35317;51.978;6.296;2023-06-24T16:42:41;33.80;44.40
49441;DHT22;35317;51.978;6.296;2023-06-24T16:47:42;33.50;44.70
49441;DHT22;35317;51.978;6.296;2023-06-24T16:52:43;33.30;44.80
49441;DHT22;35317;51.978;6.296;2023-06-24T16:57:43;33.00;45.40
49441;DHT22;35317;51.978;6.296;2023-06-24T17:02:44;32.80;45.80
49441;DHT22;35317;51.978;6.296;2023-06-24T17:07:45;32.60;46.00
49441;DHT22;35317;51.978;6.296;2023-06-24T17:12:46;32.20;46.20
49441;DHT22;35317;51.978;6.296;2023-06-24T17:17:46;31.90;46.80
49441;DHT22;35317;51.978;6.296;2023-06-24T17:22:47;31.60;47.20
49441;DHT22;35317;51.978;6.296;2023-06-24T17:27:48;31.20;47.90
49441;DHT22;35317;51.978;6.296;2023-06-24T17:32:49;30.80;48.30
49441;DHT22;35317;51.978;6.296;2023-06-24T17:37:50;30.60;49.10
49441;DHT22;35317;51.978;6.296;2023-06-24T17:42:50;30.50;49.40
49441;DHT22;35317;51.978;6.296;2023-06-24T17:47:51;30.30;50.10
49441;DHT22;35317;51.978;6.296;2023-06-24T17:52:52;30.20;50.40
49441;DHT22;35317;51.978;6.296;2023-06-24T17:57:53;30.10;50.90
49441;DHT22;35317;51.978;6.296;2023-06-24T18:02:53;30.00;51.10
49441;DHT22;35317;51.978;6.296;2023-06-24T18:07:54;29.80;51.20
49441;DHT22;35317;51.978;6.296;2023-06-24T18:12:55;29.60;51.40
49441;DHT22;35317;51.978;6.296;2023-06-24T18:17:56;29.50;51.50
49441;DHT22;35317;51.978;6.296;2023-06-24T18:22:56;29.40;51.70
49441;DHT22;35317;51.978;6.296;2023-06-24T18:27:57;29.20;52.20
49441;DHT22;35317;51.978;6.296;2023-06-24T18:32:58;29.10;52.50
49441;DHT22;35317;51.978;6.296;2023-06-24T18:37:59;28.90;52.80
49441;DHT22;35317;51.978;6.296;2023-06-24T18:42:59;28.70;53.70
49441;DHT22;35317;51.978;6.296;2023-06-24T18:48:00;28.50;54.10
49441;DHT22;35317;51.978;6.296;2023-06-24T18:53:01;28.20;55.10
49441;DHT22;35317;51.978;6.296;2023-06-24T18:58:02;28.00;55.70
49441;DHT22;35317;51.978;6.296;2023-06-24T19:03:03;27.80;56.30
49441;DHT22;35317;51.978;6.296;2023-06-24T19:08:04;27.70;57.00
49441;DHT22;35317;51.978;6.296;2023-06-24T19:13:05;27.50;57.50
49441;DHT22;35317;51.978;6.296;2023-06-24T19:18:09;27.40;58.00
49441;DHT22;35317;51.978;6.296;2023-06-24T19:23:10;27.10;58.80
49441;DHT22;35317;51.978;6.296;2023-06-24T19:28:11;27.00;59.40
49441;DHT22;35317;51.978;6.296;2023-06-24T19:33:12;26.70;59.90
49441;DHT22;35317;51.978;6.296;2023-06-24T19:38:13;26.50;60.70
49441;DHT22;35317;51.978;6.296;2023-06-24T19:43:14;26.20;61.40
49441;DHT22;35317;51.978;6.296;2023-06-24T19:48:15;26.00;62.40
49441;DHT22;35317;51.978;6.296;2023-06-24T19:53:15;25.80;63.10
49441;DHT22;35317;51.978;6.296;2023-06-24T19:58:19;25.50;64.10
49441;DHT22;35317;51.978;6.296;2023-06-24T20:03:20;25.20;65.10
49441;DHT22;35317;51.978;6.296;2023-06-24T20:08:21;25.00;66.30
49441;DHT22;35317;51.978;6.296;2023-06-24T20:13:21;24.80;67.80
49441;DHT22;35317;51.978;6.296;2023-06-24T20:18:22;24.60;68.90
49441;DHT22;35317;51.978;6.296;2023-06-24T20:23:24;24.40;69.90
49441;DHT22;35317;51.978;6.296;2023-06-24T20:28:24;24.20;71.10
49441;DHT22;35317;51.978;6.296;2023-06-24T20:33:25;24.00;72.30
49441;DHT22;35317;51.978;6.296;2023-06-24T20:38:27;23.90;73.30
49441;DHT22;35317;51.978;6.296;2023-06-24T20:43:30;23.70;74.50
49441;DHT22;35317;51.978;6.296;2023-06-24T20:48:31;23.50;75.60
49441;DHT22;35317;51.978;6.296;2023-06-24T20:53:31;23.40;76.50
49441;DHT22;35317;51.978;6.296;2023-06-24T20:58:32;23.30;77.40
49441;DHT22;35317;51.978;6.296;2023-06-24T21:03:33;23.10;78.30
49441;DHT22;35317;51.978;6.296;2023-06-24T21:08:34;23.00;79.00
49441;DHT22;35317;51.978;6.296;2023-06-24T21:13:35;22.90;79.70
49441;DHT22;35317;51.978;6.296;2023-06-24T21:18:36;22.70;80.60
49441;DHT22;35317;51.978;6.296;2023-06-24T21:23:37;22.60;81.60
49441;DHT22;35317;51.978;6.296;2023-06-24T21:28:38;22.50;82.80
49441;DHT22;35317;51.978;6.296;2023-06-24T21:33:38;22.40;84.10
49441;DHT22;35317;51.978;6.296;2023-06-24T21:38:43;22.30;85.40
49441;DHT22;35317;51.978;6.296;2023-06-24T21:43:43;22.10;86.40
49441;DHT22;35317;51.978;6.296;2023-06-24T21:48:44;22.10;87.40
49441;DHT22;35317;51.978;6.296;2023-06-24T21:53:45;22.00;88.30
49441;DHT22;35317;51.978;6.296;2023-06-24T21:58:46;21.90;89.00
49441;DHT22;35317;51.978;6.296;2023-06-24T22:03:46;21.80;89.70
49441;DHT22;35317;51.978;6.296;2023-06-24T22:08:47;21.70;90.10
49441;DHT22;35317;51.978;6.296;2023-06-24T22:13:48;21.60;90.50
49441;DHT22;35317;51.978;6.296;2023-06-24T22:18:48;21.50;90.90
49441;DHT22;35317;51.978;6.296;2023-06-24T22:23:49;21.40;91.20
49441;DHT22;35317;51.978;6.296;2023-06-24T22:28:50;21.40;91.50
49441;DHT22;35317;51.978;6.296;2023-06-24T22:33:51;21.30;91.80
49441;DHT22;35317;51.978;6.296;2023-06-24T22:38:54;21.20;92.10
49441;DHT22;35317;51.978;6.296;2023-06-24T22:43:55;21.10;92.50
49441;DHT22;35317;51.978;6.296;2023-06-24T22:48:56;21.00;92.80
49441;DHT22;35317;51.978;6.296;2023-06-24T22:53:57;20.90;93.20
49441;DHT22;35317;51.978;6.296;2023-06-24T22:58:58;20.90;93.60
49441;DHT22;35317;51.978;6.296;2023-06-24T23:03:59;20.70;94.00
49441;DHT22;35317;51.978;6.296;2023-06-24T23:09:00;20.80;94.40
49441;DHT22;35317;51.978;6.296;2023-06-24T23:14:01;20.70;94.70
49441;DHT22;35317;51.978;6.296;2023-06-24T23:19:02;20.60;94.90
49441;DHT22;35317;51.978;6.296;2023-06-24T23:24:03;20.50;95.30
49441;DHT22;35317;51.978;6.296;2023-06-24T23:29:06;20.50;95.60
49441;DHT22;35317;51.978;6.296;2023-06-24T23:34:12;20.40;95.80
49441;DHT22;35317;51.978;6.296;2023-06-24T23:39:13;20.40;96.00
49441;DHT22;35317;51.978;6.296;2023-06-24T23:44:14;20.30;96.10
49441;DHT22;35317;51.978;6.296;2023-06-24T23:49:15;20.20;96.30
49441;DHT22;35317;51.978;6.296;2023-06-24T23:54:16;20.10;96.50
49441;DHT22;35317;51.978;6.296;2023-06-24T23:59:17;20.00;96.70
